<?xml version="1.0" encoding="utf-8"?>
<gpx xmlns:xsi="http://www.w3.org/2001/XMLSchema-instance" xmlns:xsd="http://www.w3.org/2001/XMLSchema" version="1.1" creator="Shapelink.com" xmlns="http://www.topografix.com/GPX/1/1" xmlns:gpxtpx="http://www.garmin.com/xmlschemas/TrackPointExtension/v1">
  <metadata>
    <name>Løping 4.07 km, 2012-05-07</name>
    <desc></desc>
    <author><name>Mikael Blom</name></author> 
    <time>2012-05-07T15:10:21Z</time>
  </metadata>
  <trk>
    <name>Løping 4.07 km, 2012-05-07</name>
    <trkseg>
      <trkpt lat="59.9921478" lon="17.7376729">
        <ele>76.0814</ele>
        <time>2012-05-07T15:10:21Z</time>
      </trkpt>
      <trkpt lat="59.9921029" lon="17.737691">
        <ele>74.6395</ele>
        <time>2012-05-07T15:10:22Z</time>
      </trkpt>
      <trkpt lat="59.991999" lon="17.7378252">
        <ele>84.2527</ele>
        <time>2012-05-07T15:10:28Z</time>
      </trkpt>
      <trkpt lat="59.9919655" lon="17.7378415">
        <ele>85.214</ele>
        <time>2012-05-07T15:10:30Z</time>
      </trkpt>
      <trkpt lat="59.9919138" lon="17.7378598">
        <ele>91.4625</ele>
        <time>2012-05-07T15:10:33Z</time>
      </trkpt>
      <trkpt lat="59.9917955" lon="17.7378987">
        <ele>92.424</ele>
        <time>2012-05-07T15:10:37Z</time>
      </trkpt>
      <trkpt lat="59.9917576" lon="17.7379049">
        <ele>96.7499</ele>
        <time>2012-05-07T15:10:39Z</time>
      </trkpt>
      <trkpt lat="59.9916642" lon="17.7378966">
        <ele>99.6338</ele>
        <time>2012-05-07T15:10:43Z</time>
      </trkpt>
      <trkpt lat="59.9915453" lon="17.7378629">
        <ele>98.6725</ele>
        <time>2012-05-07T15:10:47Z</time>
      </trkpt>
      <trkpt lat="59.991349" lon="17.7379608">
        <ele>89.5399</ele>
        <time>2012-05-07T15:10:53Z</time>
      </trkpt>
      <trkpt lat="59.9913244" lon="17.7379755">
        <ele>88.5787</ele>
        <time>2012-05-07T15:10:54Z</time>
      </trkpt>
      <trkpt lat="59.9912277" lon="17.7380427">
        <ele>91.4625</ele>
        <time>2012-05-07T15:10:58Z</time>
      </trkpt>
      <trkpt lat="59.9910786" lon="17.7380754">
        <ele>100.595</ele>
        <time>2012-05-07T15:11:04Z</time>
      </trkpt>
      <trkpt lat="59.9909855" lon="17.7381847">
        <ele>104.921</ele>
        <time>2012-05-07T15:11:09Z</time>
      </trkpt>
      <trkpt lat="59.9909523" lon="17.7382305">
        <ele>105.402</ele>
        <time>2012-05-07T15:11:12Z</time>
      </trkpt>
      <trkpt lat="59.9908306" lon="17.7382893">
        <ele>106.844</ele>
        <time>2012-05-07T15:11:18Z</time>
      </trkpt>
      <trkpt lat="59.9907465" lon="17.7383868">
        <ele>109.247</ele>
        <time>2012-05-07T15:11:22Z</time>
      </trkpt>
      <trkpt lat="59.9907308" lon="17.7384105">
        <ele>110.689</ele>
        <time>2012-05-07T15:11:23Z</time>
      </trkpt>
      <trkpt lat="59.9906312" lon="17.7383959">
        <ele>109.728</ele>
        <time>2012-05-07T15:11:27Z</time>
      </trkpt>
      <trkpt lat="59.9905136" lon="17.7384118">
        <ele>106.363</ele>
        <time>2012-05-07T15:11:31Z</time>
      </trkpt>
      <trkpt lat="59.9903919" lon="17.7384228">
        <ele>100.595</ele>
        <time>2012-05-07T15:11:35Z</time>
      </trkpt>
      <trkpt lat="59.9902945" lon="17.7384569">
        <ele>93.8658</ele>
        <time>2012-05-07T15:11:39Z</time>
      </trkpt>
      <trkpt lat="59.9901684" lon="17.7384908">
        <ele>88.098</ele>
        <time>2012-05-07T15:11:43Z</time>
      </trkpt>
      <trkpt lat="59.9900318" lon="17.7385711">
        <ele>90.5013</ele>
        <time>2012-05-07T15:11:49Z</time>
      </trkpt>
      <trkpt lat="59.9898733" lon="17.7386519">
        <ele>92.9045</ele>
        <time>2012-05-07T15:11:55Z</time>
      </trkpt>
      <trkpt lat="59.9897573" lon="17.7387178">
        <ele>91.9432</ele>
        <time>2012-05-07T15:12:00Z</time>
      </trkpt>
      <trkpt lat="59.9897035" lon="17.7387498">
        <ele>91.4625</ele>
        <time>2012-05-07T15:12:02Z</time>
      </trkpt>
      <trkpt lat="59.9895698" lon="17.7387572">
        <ele>97.7112</ele>
        <time>2012-05-07T15:12:08Z</time>
      </trkpt>
      <trkpt lat="59.9894644" lon="17.7387191">
        <ele>102.998</ele>
        <time>2012-05-07T15:12:13Z</time>
      </trkpt>
      <trkpt lat="59.9893428" lon="17.738756">
        <ele>104.921</ele>
        <time>2012-05-07T15:12:18Z</time>
      </trkpt>
      <trkpt lat="59.9892298" lon="17.738844">
        <ele>107.324</ele>
        <time>2012-05-07T15:12:24Z</time>
      </trkpt>
      <trkpt lat="59.989137" lon="17.7389233">
        <ele>108.286</ele>
        <time>2012-05-07T15:12:29Z</time>
      </trkpt>
      <trkpt lat="59.9890213" lon="17.7390656">
        <ele>109.247</ele>
        <time>2012-05-07T15:12:35Z</time>
      </trkpt>
      <trkpt lat="59.9890015" lon="17.7390948">
        <ele>110.208</ele>
        <time>2012-05-07T15:12:36Z</time>
      </trkpt>
      <trkpt lat="59.9889079" lon="17.7391761">
        <ele>113.092</ele>
        <time>2012-05-07T15:12:41Z</time>
      </trkpt>
      <trkpt lat="59.9888122" lon="17.7392045">
        <ele>115.496</ele>
        <time>2012-05-07T15:12:45Z</time>
      </trkpt>
      <trkpt lat="59.9886421" lon="17.7392774">
        <ele>115.496</ele>
        <time>2012-05-07T15:12:52Z</time>
      </trkpt>
      <trkpt lat="59.9885286" lon="17.7393034">
        <ele>113.573</ele>
        <time>2012-05-07T15:12:56Z</time>
      </trkpt>
      <trkpt lat="59.9884988" lon="17.7393116">
        <ele>111.65</ele>
        <time>2012-05-07T15:12:57Z</time>
      </trkpt>
      <trkpt lat="59.9883631" lon="17.7393722">
        <ele>105.882</ele>
        <time>2012-05-07T15:13:02Z</time>
      </trkpt>
      <trkpt lat="59.9883393" lon="17.7393786">
        <ele>106.844</ele>
        <time>2012-05-07T15:13:03Z</time>
      </trkpt>
      <trkpt lat="59.988266" lon="17.7394552">
        <ele>111.17</ele>
        <time>2012-05-07T15:13:08Z</time>
      </trkpt>
      <trkpt lat="59.9882467" lon="17.7394745">
        <ele>112.131</ele>
        <time>2012-05-07T15:13:09Z</time>
      </trkpt>
      <trkpt lat="59.9880611" lon="17.7394989">
        <ele>111.65</ele>
        <time>2012-05-07T15:13:15Z</time>
      </trkpt>
      <trkpt lat="59.9878995" lon="17.739432">
        <ele>112.612</ele>
        <time>2012-05-07T15:13:20Z</time>
      </trkpt>
      <trkpt lat="59.9877853" lon="17.7394305">
        <ele>109.728</ele>
        <time>2012-05-07T15:13:24Z</time>
      </trkpt>
      <trkpt lat="59.987641" lon="17.7394532">
        <ele>110.689</ele>
        <time>2012-05-07T15:13:29Z</time>
      </trkpt>
      <trkpt lat="59.9875205" lon="17.7394894">
        <ele>105.402</ele>
        <time>2012-05-07T15:13:34Z</time>
      </trkpt>
      <trkpt lat="59.9874175" lon="17.7395232">
        <ele>102.037</ele>
        <time>2012-05-07T15:13:38Z</time>
      </trkpt>
      <trkpt lat="59.9872598" lon="17.73955">
        <ele>91.9432</ele>
        <time>2012-05-07T15:13:42Z</time>
      </trkpt>
      <trkpt lat="59.9871256" lon="17.7395196">
        <ele>82.8108</ele>
        <time>2012-05-07T15:13:45Z</time>
      </trkpt>
      <trkpt lat="59.9869398" lon="17.73943">
        <ele>77.5234</ele>
        <time>2012-05-07T15:13:51Z</time>
      </trkpt>
      <trkpt lat="59.9868443" lon="17.7394029">
        <ele>73.1976</ele>
        <time>2012-05-07T15:13:55Z</time>
      </trkpt>
      <trkpt lat="59.986714" lon="17.7392663">
        <ele>74.1588</ele>
        <time>2012-05-07T15:14:00Z</time>
      </trkpt>
      <trkpt lat="59.9866175" lon="17.7391681">
        <ele>74.1588</ele>
        <time>2012-05-07T15:14:04Z</time>
      </trkpt>
      <trkpt lat="59.986504" lon="17.7390331">
        <ele>71.7555</ele>
        <time>2012-05-07T15:14:09Z</time>
      </trkpt>
      <trkpt lat="59.9863794" lon="17.7389083">
        <ele>70.7942</ele>
        <time>2012-05-07T15:14:14Z</time>
      </trkpt>
      <trkpt lat="59.9863158" lon="17.738867">
        <ele>65.0264</ele>
        <time>2012-05-07T15:14:18Z</time>
      </trkpt>
      <trkpt lat="59.9862017" lon="17.7388072">
        <ele>65.0264</ele>
        <time>2012-05-07T15:14:24Z</time>
      </trkpt>
      <trkpt lat="59.986095" lon="17.7387439">
        <ele>66.949</ele>
        <time>2012-05-07T15:14:29Z</time>
      </trkpt>
      <trkpt lat="59.9859779" lon="17.7386513">
        <ele>73.1976</ele>
        <time>2012-05-07T15:14:35Z</time>
      </trkpt>
      <trkpt lat="59.9858741" lon="17.7385815">
        <ele>74.1588</ele>
        <time>2012-05-07T15:14:39Z</time>
      </trkpt>
      <trkpt lat="59.9857271" lon="17.7385109">
        <ele>78.9655</ele>
        <time>2012-05-07T15:14:45Z</time>
      </trkpt>
      <trkpt lat="59.9856027" lon="17.7383695">
        <ele>85.6946</ele>
        <time>2012-05-07T15:14:50Z</time>
      </trkpt>
      <trkpt lat="59.9855459" lon="17.7383233">
        <ele>86.656</ele>
        <time>2012-05-07T15:14:52Z</time>
      </trkpt>
      <trkpt lat="59.9854662" lon="17.738156">
        <ele>88.5787</ele>
        <time>2012-05-07T15:14:56Z</time>
      </trkpt>
      <trkpt lat="59.9854377" lon="17.7377764">
        <ele>92.424</ele>
        <time>2012-05-07T15:15:02Z</time>
      </trkpt>
      <trkpt lat="59.985449" lon="17.7376714">
        <ele>90.9819</ele>
        <time>2012-05-07T15:15:04Z</time>
      </trkpt>
      <trkpt lat="59.985533" lon="17.7374049">
        <ele>85.214</ele>
        <time>2012-05-07T15:15:10Z</time>
      </trkpt>
      <trkpt lat="59.9855437" lon="17.737367">
        <ele>84.2527</ele>
        <time>2012-05-07T15:15:11Z</time>
      </trkpt>
      <trkpt lat="59.985663" lon="17.7371213">
        <ele>76.5621</ele>
        <time>2012-05-07T15:15:18Z</time>
      </trkpt>
      <trkpt lat="59.9857827" lon="17.7369861">
        <ele>69.3523</ele>
        <time>2012-05-07T15:15:23Z</time>
      </trkpt>
      <trkpt lat="59.9859" lon="17.7368065">
        <ele>63.5844</ele>
        <time>2012-05-07T15:15:29Z</time>
      </trkpt>
      <trkpt lat="59.9860131" lon="17.7366351">
        <ele>63.5844</ele>
        <time>2012-05-07T15:15:34Z</time>
      </trkpt>
      <trkpt lat="59.9861504" lon="17.7364488">
        <ele>63.1036</ele>
        <time>2012-05-07T15:15:40Z</time>
      </trkpt>
      <trkpt lat="59.9862531" lon="17.7363011">
        <ele>57.8165</ele>
        <time>2012-05-07T15:15:45Z</time>
      </trkpt>
      <trkpt lat="59.9863783" lon="17.7360914">
        <ele>53.4905</ele>
        <time>2012-05-07T15:15:51Z</time>
      </trkpt>
      <trkpt lat="59.9864523" lon="17.735904">
        <ele>49.6453</ele>
        <time>2012-05-07T15:15:56Z</time>
      </trkpt>
      <trkpt lat="59.9865431" lon="17.735582">
        <ele>52.5292</ele>
        <time>2012-05-07T15:16:03Z</time>
      </trkpt>
      <trkpt lat="59.9865952" lon="17.7352957">
        <ele>53.9712</ele>
        <time>2012-05-07T15:16:09Z</time>
      </trkpt>
      <trkpt lat="59.9866586" lon="17.7350744">
        <ele>57.3358</ele>
        <time>2012-05-07T15:16:14Z</time>
      </trkpt>
      <trkpt lat="59.9867191" lon="17.7348391">
        <ele>57.8165</ele>
        <time>2012-05-07T15:16:19Z</time>
      </trkpt>
      <trkpt lat="59.9867756" lon="17.7346252">
        <ele>55.8938</ele>
        <time>2012-05-07T15:16:24Z</time>
      </trkpt>
      <trkpt lat="59.9868181" lon="17.7344213">
        <ele>53.4905</ele>
        <time>2012-05-07T15:16:29Z</time>
      </trkpt>
      <trkpt lat="59.9868771" lon="17.7342022">
        <ele>51.5679</ele>
        <time>2012-05-07T15:16:34Z</time>
      </trkpt>
      <trkpt lat="59.9869434" lon="17.7339604">
        <ele>53.9712</ele>
        <time>2012-05-07T15:16:39Z</time>
      </trkpt>
      <trkpt lat="59.9869819" lon="17.7337322">
        <ele>51.0872</ele>
        <time>2012-05-07T15:16:44Z</time>
      </trkpt>
      <trkpt lat="59.9870375" lon="17.7334846">
        <ele>53.4905</ele>
        <time>2012-05-07T15:16:49Z</time>
      </trkpt>
      <trkpt lat="59.9871083" lon="17.7332196">
        <ele>60.2197</ele>
        <time>2012-05-07T15:16:54Z</time>
      </trkpt>
      <trkpt lat="59.9871834" lon="17.7329294">
        <ele>57.3358</ele>
        <time>2012-05-07T15:17:00Z</time>
      </trkpt>
      <trkpt lat="59.9871962" lon="17.7328782">
        <ele>57.8165</ele>
        <time>2012-05-07T15:17:01Z</time>
      </trkpt>
      <trkpt lat="59.9872453" lon="17.7326045">
        <ele>62.1423</ele>
        <time>2012-05-07T15:17:07Z</time>
      </trkpt>
      <trkpt lat="59.9872683" lon="17.7323585">
        <ele>59.7391</ele>
        <time>2012-05-07T15:17:12Z</time>
      </trkpt>
      <trkpt lat="59.9873558" lon="17.7320675">
        <ele>61.6617</ele>
        <time>2012-05-07T15:17:18Z</time>
      </trkpt>
      <trkpt lat="59.9874621" lon="17.7318318">
        <ele>63.5844</ele>
        <time>2012-05-07T15:17:24Z</time>
      </trkpt>
      <trkpt lat="59.9875485" lon="17.7316462">
        <ele>59.2584</ele>
        <time>2012-05-07T15:17:29Z</time>
      </trkpt>
      <trkpt lat="59.9876516" lon="17.7314156">
        <ele>54.9324</ele>
        <time>2012-05-07T15:17:35Z</time>
      </trkpt>
      <trkpt lat="59.9877555" lon="17.7312137">
        <ele>54.4518</ele>
        <time>2012-05-07T15:17:41Z</time>
      </trkpt>
      <trkpt lat="59.9878665" lon="17.7310941">
        <ele>52.0486</ele>
        <time>2012-05-07T15:17:46Z</time>
      </trkpt>
      <trkpt lat="59.9879597" lon="17.7308964">
        <ele>54.4518</ele>
        <time>2012-05-07T15:17:51Z</time>
      </trkpt>
      <trkpt lat="59.9880385" lon="17.7307077">
        <ele>54.4518</ele>
        <time>2012-05-07T15:17:56Z</time>
      </trkpt>
      <trkpt lat="59.9881287" lon="17.730512">
        <ele>53.4905</ele>
        <time>2012-05-07T15:18:01Z</time>
      </trkpt>
      <trkpt lat="59.988241" lon="17.7303319">
        <ele>51.5679</ele>
        <time>2012-05-07T15:18:07Z</time>
      </trkpt>
      <trkpt lat="59.9883735" lon="17.7300617">
        <ele>54.4518</ele>
        <time>2012-05-07T15:18:15Z</time>
      </trkpt>
      <trkpt lat="59.988469" lon="17.7299058">
        <ele>55.8938</ele>
        <time>2012-05-07T15:18:20Z</time>
      </trkpt>
      <trkpt lat="59.9885861" lon="17.7297825">
        <ele>53.9712</ele>
        <time>2012-05-07T15:18:25Z</time>
      </trkpt>
      <trkpt lat="59.9887244" lon="17.7296381">
        <ele>53.0098</ele>
        <time>2012-05-07T15:18:31Z</time>
      </trkpt>
      <trkpt lat="59.98887" lon="17.729458">
        <ele>45.3192</ele>
        <time>2012-05-07T15:18:38Z</time>
      </trkpt>
      <trkpt lat="59.9890046" lon="17.7293061">
        <ele>42.4354</ele>
        <time>2012-05-07T15:18:44Z</time>
      </trkpt>
      <trkpt lat="59.9891626" lon="17.7291247">
        <ele>39.5513</ele>
        <time>2012-05-07T15:18:51Z</time>
      </trkpt>
      <trkpt lat="59.9892921" lon="17.7289884">
        <ele>37.6287</ele>
        <time>2012-05-07T15:18:57Z</time>
      </trkpt>
      <trkpt lat="59.9894185" lon="17.728833">
        <ele>36.1868</ele>
        <time>2012-05-07T15:19:03Z</time>
      </trkpt>
      <trkpt lat="59.9895105" lon="17.7286543">
        <ele>34.7449</ele>
        <time>2012-05-07T15:19:08Z</time>
      </trkpt>
      <trkpt lat="59.9895433" lon="17.7284293">
        <ele>34.2642</ele>
        <time>2012-05-07T15:19:13Z</time>
      </trkpt>
      <trkpt lat="59.9895615" lon="17.728212">
        <ele>33.3029</ele>
        <time>2012-05-07T15:19:18Z</time>
      </trkpt>
      <trkpt lat="59.9895738" lon="17.7279271">
        <ele>31.3801</ele>
        <time>2012-05-07T15:19:24Z</time>
      </trkpt>
      <trkpt lat="59.9895737" lon="17.7276058">
        <ele>28.9769</ele>
        <time>2012-05-07T15:19:30Z</time>
      </trkpt>
      <trkpt lat="59.9895905" lon="17.7272987">
        <ele>27.0543</ele>
        <time>2012-05-07T15:19:36Z</time>
      </trkpt>
      <trkpt lat="59.9896154" lon="17.7270598">
        <ele>24.1703</ele>
        <time>2012-05-07T15:19:41Z</time>
      </trkpt>
      <trkpt lat="59.9896475" lon="17.7267458">
        <ele>26.0929</ele>
        <time>2012-05-07T15:19:47Z</time>
      </trkpt>
      <trkpt lat="59.9896483" lon="17.7266945">
        <ele>25.6123</ele>
        <time>2012-05-07T15:19:48Z</time>
      </trkpt>
      <trkpt lat="59.9895616" lon="17.7266024">
        <ele>23.6896</ele>
        <time>2012-05-07T15:19:53Z</time>
      </trkpt>
      <trkpt lat="59.9895289" lon="17.7266196">
        <ele>24.1703</ele>
        <time>2012-05-07T15:19:54Z</time>
      </trkpt>
      <trkpt lat="59.9893324" lon="17.7266517">
        <ele>27.0543</ele>
        <time>2012-05-07T15:20:01Z</time>
      </trkpt>
      <trkpt lat="59.9891541" lon="17.7266378">
        <ele>23.209</ele>
        <time>2012-05-07T15:20:07Z</time>
      </trkpt>
      <trkpt lat="59.9889772" lon="17.7266012">
        <ele>27.0543</ele>
        <time>2012-05-07T15:20:14Z</time>
      </trkpt>
      <trkpt lat="59.9888469" lon="17.7265828">
        <ele>30.4188</ele>
        <time>2012-05-07T15:20:19Z</time>
      </trkpt>
      <trkpt lat="59.9887123" lon="17.7265561">
        <ele>29.9381</ele>
        <time>2012-05-07T15:20:24Z</time>
      </trkpt>
      <trkpt lat="59.9886271" lon="17.7265655">
        <ele>32.8223</ele>
        <time>2012-05-07T15:20:28Z</time>
      </trkpt>
      <trkpt lat="59.9884851" lon="17.7265815">
        <ele>30.4188</ele>
        <time>2012-05-07T15:20:33Z</time>
      </trkpt>
      <trkpt lat="59.9883023" lon="17.7265947">
        <ele>28.9769</ele>
        <time>2012-05-07T15:20:40Z</time>
      </trkpt>
      <trkpt lat="59.9881763" lon="17.7266057">
        <ele>28.4962</ele>
        <time>2012-05-07T15:20:45Z</time>
      </trkpt>
      <trkpt lat="59.9880544" lon="17.7265983">
        <ele>28.4962</ele>
        <time>2012-05-07T15:20:50Z</time>
      </trkpt>
      <trkpt lat="59.9879215" lon="17.7265971">
        <ele>28.0155</ele>
        <time>2012-05-07T15:20:55Z</time>
      </trkpt>
      <trkpt lat="59.9878291" lon="17.7265978">
        <ele>28.0155</ele>
        <time>2012-05-07T15:20:59Z</time>
      </trkpt>
      <trkpt lat="59.9876614" lon="17.7265964">
        <ele>27.5349</ele>
        <time>2012-05-07T15:21:06Z</time>
      </trkpt>
      <trkpt lat="59.9875348" lon="17.7265823">
        <ele>27.0543</ele>
        <time>2012-05-07T15:21:11Z</time>
      </trkpt>
      <trkpt lat="59.9873492" lon="17.7265951">
        <ele>26.5736</ele>
        <time>2012-05-07T15:21:18Z</time>
      </trkpt>
      <trkpt lat="59.9871888" lon="17.7265957">
        <ele>27.0543</ele>
        <time>2012-05-07T15:21:24Z</time>
      </trkpt>
      <trkpt lat="59.9870836" lon="17.7266082">
        <ele>27.5349</ele>
        <time>2012-05-07T15:21:28Z</time>
      </trkpt>
      <trkpt lat="59.9869512" lon="17.7266103">
        <ele>28.4962</ele>
        <time>2012-05-07T15:21:33Z</time>
      </trkpt>
      <trkpt lat="59.9868162" lon="17.7266129">
        <ele>29.4575</ele>
        <time>2012-05-07T15:21:38Z</time>
      </trkpt>
      <trkpt lat="59.9866648" lon="17.726636">
        <ele>30.4188</ele>
        <time>2012-05-07T15:21:44Z</time>
      </trkpt>
      <trkpt lat="59.9865206" lon="17.7266373">
        <ele>31.3801</ele>
        <time>2012-05-07T15:21:50Z</time>
      </trkpt>
      <trkpt lat="59.9863655" lon="17.7266243">
        <ele>30.4188</ele>
        <time>2012-05-07T15:21:56Z</time>
      </trkpt>
      <trkpt lat="59.9862379" lon="17.7266302">
        <ele>30.4188</ele>
        <time>2012-05-07T15:22:01Z</time>
      </trkpt>
      <trkpt lat="59.9860654" lon="17.7266297">
        <ele>29.9381</ele>
        <time>2012-05-07T15:22:08Z</time>
      </trkpt>
      <trkpt lat="59.9859474" lon="17.7266387">
        <ele>29.9381</ele>
        <time>2012-05-07T15:22:13Z</time>
      </trkpt>
      <trkpt lat="59.985824" lon="17.7266575">
        <ele>30.4188</ele>
        <time>2012-05-07T15:22:18Z</time>
      </trkpt>
      <trkpt lat="59.9856477" lon="17.7266772">
        <ele>29.4575</ele>
        <time>2012-05-07T15:22:25Z</time>
      </trkpt>
      <trkpt lat="59.9854957" lon="17.7266377">
        <ele>30.4188</ele>
        <time>2012-05-07T15:22:31Z</time>
      </trkpt>
      <trkpt lat="59.985346" lon="17.7266271">
        <ele>29.4575</ele>
        <time>2012-05-07T15:22:38Z</time>
      </trkpt>
      <trkpt lat="59.9851962" lon="17.7266386">
        <ele>29.9381</ele>
        <time>2012-05-07T15:22:45Z</time>
      </trkpt>
      <trkpt lat="59.9850582" lon="17.7266204">
        <ele>28.9769</ele>
        <time>2012-05-07T15:22:51Z</time>
      </trkpt>
      <trkpt lat="59.9848937" lon="17.7266195">
        <ele>28.9769</ele>
        <time>2012-05-07T15:22:58Z</time>
      </trkpt>
      <trkpt lat="59.9847304" lon="17.7266201">
        <ele>27.0543</ele>
        <time>2012-05-07T15:23:05Z</time>
      </trkpt>
      <trkpt lat="59.9845503" lon="17.7266227">
        <ele>27.5349</ele>
        <time>2012-05-07T15:23:12Z</time>
      </trkpt>
      <trkpt lat="59.9844024" lon="17.7266279">
        <ele>28.4962</ele>
        <time>2012-05-07T15:23:18Z</time>
      </trkpt>
      <trkpt lat="59.9842473" lon="17.7266455">
        <ele>29.4575</ele>
        <time>2012-05-07T15:23:24Z</time>
      </trkpt>
      <trkpt lat="59.9841012" lon="17.7266509">
        <ele>29.4575</ele>
        <time>2012-05-07T15:23:30Z</time>
      </trkpt>
      <trkpt lat="59.9839489" lon="17.7266478">
        <ele>28.4962</ele>
        <time>2012-05-07T15:23:36Z</time>
      </trkpt>
      <trkpt lat="59.983809" lon="17.7266735">
        <ele>28.4962</ele>
        <time>2012-05-07T15:23:42Z</time>
      </trkpt>
      <trkpt lat="59.9836325" lon="17.7266801">
        <ele>28.9769</ele>
        <time>2012-05-07T15:23:49Z</time>
      </trkpt>
      <trkpt lat="59.983454" lon="17.7266817">
        <ele>28.0155</ele>
        <time>2012-05-07T15:23:56Z</time>
      </trkpt>
      <trkpt lat="59.9832806" lon="17.7266828">
        <ele>27.5349</ele>
        <time>2012-05-07T15:24:03Z</time>
      </trkpt>
      <trkpt lat="59.9831169" lon="17.7266593">
        <ele>26.5736</ele>
        <time>2012-05-07T15:24:10Z</time>
      </trkpt>
      <trkpt lat="59.9829671" lon="17.7266447">
        <ele>26.5736</ele>
        <time>2012-05-07T15:24:16Z</time>
      </trkpt>
      <trkpt lat="59.9828106" lon="17.7266567">
        <ele>26.0929</ele>
        <time>2012-05-07T15:24:23Z</time>
      </trkpt>
      <trkpt lat="59.9826637" lon="17.7267129">
        <ele>25.1317</ele>
        <time>2012-05-07T15:24:29Z</time>
      </trkpt>
      <trkpt lat="59.9825527" lon="17.7268405">
        <ele>25.6123</ele>
        <time>2012-05-07T15:24:34Z</time>
      </trkpt>
      <trkpt lat="59.9824373" lon="17.7269309">
        <ele>27.0543</ele>
        <time>2012-05-07T15:24:39Z</time>
      </trkpt>
      <trkpt lat="59.9823402" lon="17.7270542">
        <ele>28.4962</ele>
        <time>2012-05-07T15:24:44Z</time>
      </trkpt>
      <trkpt lat="59.9822522" lon="17.7272732">
        <ele>29.9381</ele>
        <time>2012-05-07T15:24:50Z</time>
      </trkpt>
      <trkpt lat="59.9821829" lon="17.7274668">
        <ele>29.9381</ele>
        <time>2012-05-07T15:24:55Z</time>
      </trkpt>
      <trkpt lat="59.9821021" lon="17.7276567">
        <ele>31.8607</ele>
        <time>2012-05-07T15:25:00Z</time>
      </trkpt>
      <trkpt lat="59.9819653" lon="17.7278793">
        <ele>29.4575</ele>
        <time>2012-05-07T15:25:07Z</time>
      </trkpt>
      <trkpt lat="59.9818576" lon="17.7280622">
        <ele>28.9769</ele>
        <time>2012-05-07T15:25:13Z</time>
      </trkpt>
      <trkpt lat="59.9817026" lon="17.7282351">
        <ele>28.4962</ele>
        <time>2012-05-07T15:25:20Z</time>
      </trkpt>
      <trkpt lat="59.9815482" lon="17.7283227">
        <ele>28.0155</ele>
        <time>2012-05-07T15:25:26Z</time>
      </trkpt>
      <trkpt lat="59.9813917" lon="17.7284227">
        <ele>28.0155</ele>
        <time>2012-05-07T15:25:32Z</time>
      </trkpt>
      <trkpt lat="59.9812794" lon="17.7286627">
        <ele>28.9769</ele>
        <time>2012-05-07T15:25:39Z</time>
      </trkpt>
      <trkpt lat="59.9811511" lon="17.7288035">
        <ele>29.9381</ele>
        <time>2012-05-07T15:25:45Z</time>
      </trkpt>
      <trkpt lat="59.9810133" lon="17.7289209">
        <ele>30.4188</ele>
        <time>2012-05-07T15:25:51Z</time>
      </trkpt>
      <trkpt lat="59.9808614" lon="17.7289593">
        <ele>29.9381</ele>
        <time>2012-05-07T15:25:57Z</time>
      </trkpt>
      <trkpt lat="59.9807285" lon="17.7288632">
        <ele>28.0155</ele>
        <time>2012-05-07T15:26:02Z</time>
      </trkpt>
      <trkpt lat="59.980644" lon="17.7286727">
        <ele>26.5736</ele>
        <time>2012-05-07T15:26:06Z</time>
      </trkpt>
      <trkpt lat="59.9805513" lon="17.7284837">
        <ele>24.651</ele>
        <time>2012-05-07T15:26:11Z</time>
      </trkpt>
      <trkpt lat="59.9804467" lon="17.7282754">
        <ele>23.209</ele>
        <time>2012-05-07T15:26:17Z</time>
      </trkpt>
      <trkpt lat="59.980342" lon="17.7280546">
        <ele>22.2476</ele>
        <time>2012-05-07T15:26:23Z</time>
      </trkpt>
      <trkpt lat="59.9802335" lon="17.7278389">
        <ele>22.2476</ele>
        <time>2012-05-07T15:26:29Z</time>
      </trkpt>
      <trkpt lat="59.9801512" lon="17.7277018">
        <ele>22.2476</ele>
        <time>2012-05-07T15:26:33Z</time>
      </trkpt>
      <trkpt lat="59.980085" lon="17.7275509">
        <ele>20.8057</ele>
        <time>2012-05-07T15:26:37Z</time>
      </trkpt>
      <trkpt lat="59.9799553" lon="17.7272795">
        <ele>20.325</ele>
        <time>2012-05-07T15:26:44Z</time>
      </trkpt>
      <trkpt lat="59.9798605" lon="17.7270908">
        <ele>19.3638</ele>
        <time>2012-05-07T15:26:49Z</time>
      </trkpt>
      <trkpt lat="59.9797607" lon="17.726906">
        <ele>19.3638</ele>
        <time>2012-05-07T15:26:54Z</time>
      </trkpt>
      <trkpt lat="59.9796157" lon="17.7266236">
        <ele>20.8057</ele>
        <time>2012-05-07T15:27:02Z</time>
      </trkpt>
      <trkpt lat="59.9795345" lon="17.7264274">
        <ele>20.325</ele>
        <time>2012-05-07T15:27:07Z</time>
      </trkpt>
      <trkpt lat="59.9794199" lon="17.7263543">
        <ele>20.8057</ele>
        <time>2012-05-07T15:27:12Z</time>
      </trkpt>
      <trkpt lat="59.9792479" lon="17.7262911">
        <ele>20.8057</ele>
        <time>2012-05-07T15:27:19Z</time>
      </trkpt>
      <trkpt lat="59.9791253" lon="17.7261993">
        <ele>20.8057</ele>
        <time>2012-05-07T15:27:24Z</time>
      </trkpt>
      <trkpt lat="59.9789972" lon="17.7260508">
        <ele>21.767</ele>
        <time>2012-05-07T15:27:30Z</time>
      </trkpt>
      <trkpt lat="59.9789046" lon="17.7258768">
        <ele>22.2476</ele>
        <time>2012-05-07T15:27:35Z</time>
      </trkpt>
      <trkpt lat="59.9787717" lon="17.7257235">
        <ele>21.767</ele>
        <time>2012-05-07T15:27:41Z</time>
      </trkpt>
      <trkpt lat="59.9785655" lon="17.7256265">
        <ele>21.767</ele>
        <time>2012-05-07T15:27:49Z</time>
      </trkpt>
      <trkpt lat="59.9784627" lon="17.7255773">
        <ele>22.2476</ele>
        <time>2012-05-07T15:27:53Z</time>
      </trkpt>
      <trkpt lat="59.9782412" lon="17.7254209">
        <ele>22.7283</ele>
        <time>2012-05-07T15:28:02Z</time>
      </trkpt>
      <trkpt lat="59.978071" lon="17.7253059">
        <ele>23.209</ele>
        <time>2012-05-07T15:28:09Z</time>
      </trkpt>
      <trkpt lat="59.977918" lon="17.725223">
        <ele>24.1703</ele>
        <time>2012-05-07T15:28:15Z</time>
      </trkpt>
      <trkpt lat="59.9777742" lon="17.7251817">
        <ele>24.1703</ele>
        <time>2012-05-07T15:28:21Z</time>
      </trkpt>
      <trkpt lat="59.977626" lon="17.7251417">
        <ele>24.651</ele>
        <time>2012-05-07T15:28:27Z</time>
      </trkpt>
      <trkpt lat="59.9774815" lon="17.7251044">
        <ele>24.1703</ele>
        <time>2012-05-07T15:28:33Z</time>
      </trkpt>
      <trkpt lat="59.9773551" lon="17.7250685">
        <ele>24.1703</ele>
        <time>2012-05-07T15:28:38Z</time>
      </trkpt>
      <trkpt lat="59.9771868" lon="17.7250348">
        <ele>24.651</ele>
        <time>2012-05-07T15:28:45Z</time>
      </trkpt>
      <trkpt lat="59.9770531" lon="17.7250811">
        <ele>24.1703</ele>
        <time>2012-05-07T15:28:51Z</time>
      </trkpt>
      <trkpt lat="59.9769609" lon="17.7251821">
        <ele>25.6123</ele>
        <time>2012-05-07T15:28:56Z</time>
      </trkpt>
      <trkpt lat="59.9768563" lon="17.7253006">
        <ele>24.651</ele>
        <time>2012-05-07T15:29:01Z</time>
      </trkpt>
      <trkpt lat="59.9767402" lon="17.7254212">
        <ele>24.1703</ele>
        <time>2012-05-07T15:29:06Z</time>
      </trkpt>
      <trkpt lat="59.9766134" lon="17.7255489">
        <ele>23.6896</ele>
        <time>2012-05-07T15:29:12Z</time>
      </trkpt>
      <trkpt lat="59.9765139" lon="17.725668">
        <ele>24.1703</ele>
        <time>2012-05-07T15:29:17Z</time>
      </trkpt>
      <trkpt lat="59.9763838" lon="17.7257981">
        <ele>24.1703</ele>
        <time>2012-05-07T15:29:23Z</time>
      </trkpt>
      <trkpt lat="59.9762357" lon="17.7259564">
        <ele>25.1317</ele>
        <time>2012-05-07T15:29:30Z</time>
      </trkpt>
      <trkpt lat="59.9761115" lon="17.7260719">
        <ele>26.0929</ele>
        <time>2012-05-07T15:29:36Z</time>
      </trkpt>
      <trkpt lat="59.9760058" lon="17.7261542">
        <ele>26.5736</ele>
        <time>2012-05-07T15:29:41Z</time>
      </trkpt>
      <trkpt lat="59.9758829" lon="17.7262646">
        <ele>25.1317</ele>
        <time>2012-05-07T15:29:47Z</time>
      </trkpt>
      <trkpt lat="59.9757582" lon="17.7263643">
        <ele>24.651</ele>
        <time>2012-05-07T15:29:53Z</time>
      </trkpt>
      <trkpt lat="59.9756647" lon="17.7264634">
        <ele>23.6896</ele>
        <time>2012-05-07T15:29:57Z</time>
      </trkpt>
      <trkpt lat="59.9755473" lon="17.7265982">
        <ele>24.1703</ele>
        <time>2012-05-07T15:30:03Z</time>
      </trkpt>
      <trkpt lat="59.975425" lon="17.7267113">
        <ele>23.209</ele>
        <time>2012-05-07T15:30:09Z</time>
      </trkpt>
      <trkpt lat="59.9753067" lon="17.7268388">
        <ele>21.767</ele>
        <time>2012-05-07T15:30:15Z</time>
      </trkpt>
      <trkpt lat="59.9751515" lon="17.7270211">
        <ele>22.2476</ele>
        <time>2012-05-07T15:30:22Z</time>
      </trkpt>
      <trkpt lat="59.9750163" lon="17.727186">
        <ele>25.6123</ele>
        <time>2012-05-07T15:30:27Z</time>
      </trkpt>
      <trkpt lat="59.9748832" lon="17.7273014">
        <ele>26.5736</ele>
        <time>2012-05-07T15:30:33Z</time>
      </trkpt>
      <trkpt lat="59.9747408" lon="17.7274116">
        <ele>24.651</ele>
        <time>2012-05-07T15:30:40Z</time>
      </trkpt>
      <trkpt lat="59.9746369" lon="17.7275054">
        <ele>23.209</ele>
        <time>2012-05-07T15:30:45Z</time>
      </trkpt>
      <trkpt lat="59.974519" lon="17.7276581">
        <ele>23.209</ele>
        <time>2012-05-07T15:30:51Z</time>
      </trkpt>
      <trkpt lat="59.9744598" lon="17.7277636">
        <ele>22.7283</ele>
        <time>2012-05-07T15:30:54Z</time>
      </trkpt>
      <trkpt lat="59.9744381" lon="17.7281069">
        <ele>22.7283</ele>
        <time>2012-05-07T15:31:01Z</time>
      </trkpt>
      <trkpt lat="59.9744641" lon="17.7284513">
        <ele>27.0543</ele>
        <time>2012-05-07T15:31:07Z</time>
      </trkpt>
      <trkpt lat="59.9744838" lon="17.7287981">
        <ele>28.0155</ele>
        <time>2012-05-07T15:31:13Z</time>
      </trkpt>
      <trkpt lat="59.9744961" lon="17.7291256">
        <ele>27.5349</ele>
        <time>2012-05-07T15:31:19Z</time>
      </trkpt>
      <trkpt lat="59.9745044" lon="17.7294816">
        <ele>28.4962</ele>
        <time>2012-05-07T15:31:26Z</time>
      </trkpt>
      <trkpt lat="59.9744884" lon="17.7297943">
        <ele>28.4962</ele>
        <time>2012-05-07T15:31:32Z</time>
      </trkpt>
      <trkpt lat="59.9744613" lon="17.7301325">
        <ele>28.9769</ele>
        <time>2012-05-07T15:31:39Z</time>
      </trkpt>
      <trkpt lat="59.9744461" lon="17.7304361">
        <ele>30.4188</ele>
        <time>2012-05-07T15:31:45Z</time>
      </trkpt>
      <trkpt lat="59.974415" lon="17.7307828">
        <ele>29.9381</ele>
        <time>2012-05-07T15:31:52Z</time>
      </trkpt>
      <trkpt lat="59.9743908" lon="17.7310811">
        <ele>28.0155</ele>
        <time>2012-05-07T15:31:58Z</time>
      </trkpt>
      <trkpt lat="59.974382" lon="17.7313312">
        <ele>27.5349</ele>
        <time>2012-05-07T15:32:03Z</time>
      </trkpt>
      <trkpt lat="59.974372" lon="17.7316192">
        <ele>25.6123</ele>
        <time>2012-05-07T15:32:09Z</time>
      </trkpt>
      <trkpt lat="59.9743687" lon="17.7319411">
        <ele>24.651</ele>
        <time>2012-05-07T15:32:16Z</time>
      </trkpt>
      <trkpt lat="59.9743753" lon="17.7321709">
        <ele>24.1703</ele>
        <time>2012-05-07T15:32:21Z</time>
      </trkpt>
      <trkpt lat="59.974373" lon="17.7324502">
        <ele>25.1317</ele>
        <time>2012-05-07T15:32:27Z</time>
      </trkpt>
      <trkpt lat="59.974386" lon="17.7327803">
        <ele>27.5349</ele>
        <time>2012-05-07T15:32:34Z</time>
      </trkpt>
      <trkpt lat="59.9743803" lon="17.7331304">
        <ele>28.0155</ele>
        <time>2012-05-07T15:32:41Z</time>
      </trkpt>
      <trkpt lat="59.9743739" lon="17.7334247">
        <ele>29.4575</ele>
        <time>2012-05-07T15:32:47Z</time>
      </trkpt>
      <trkpt lat="59.9743699" lon="17.7336659">
        <ele>29.9381</ele>
        <time>2012-05-07T15:32:52Z</time>
      </trkpt>
      <trkpt lat="59.9743377" lon="17.7340007">
        <ele>29.4575</ele>
        <time>2012-05-07T15:32:59Z</time>
      </trkpt>
      <trkpt lat="59.9743197" lon="17.7343">
        <ele>28.4962</ele>
        <time>2012-05-07T15:33:05Z</time>
      </trkpt>
      <trkpt lat="59.9743107" lon="17.734567">
        <ele>27.5349</ele>
        <time>2012-05-07T15:33:10Z</time>
      </trkpt>
      <trkpt lat="59.9743185" lon="17.7348417">
        <ele>27.0543</ele>
        <time>2012-05-07T15:33:15Z</time>
      </trkpt>
      <trkpt lat="59.9743339" lon="17.7351672">
        <ele>27.0543</ele>
        <time>2012-05-07T15:33:21Z</time>
      </trkpt>
      <trkpt lat="59.9743595" lon="17.7354759">
        <ele>28.0155</ele>
        <time>2012-05-07T15:33:27Z</time>
      </trkpt>
      <trkpt lat="59.9743924" lon="17.7356765">
        <ele>28.4962</ele>
        <time>2012-05-07T15:33:31Z</time>
      </trkpt>
      <trkpt lat="59.9744579" lon="17.736019">
        <ele>29.4575</ele>
        <time>2012-05-07T15:33:38Z</time>
      </trkpt>
      <trkpt lat="59.9745123" lon="17.7362633">
        <ele>29.9381</ele>
        <time>2012-05-07T15:33:43Z</time>
      </trkpt>
      <trkpt lat="59.9745776" lon="17.7365374">
        <ele>29.9381</ele>
        <time>2012-05-07T15:33:49Z</time>
      </trkpt>
      <trkpt lat="59.9746551" lon="17.7368087">
        <ele>29.9381</ele>
        <time>2012-05-07T15:33:55Z</time>
      </trkpt>
      <trkpt lat="59.974748" lon="17.7370689">
        <ele>28.9769</ele>
        <time>2012-05-07T15:34:01Z</time>
      </trkpt>
      <trkpt lat="59.9748262" lon="17.7372709">
        <ele>28.0155</ele>
        <time>2012-05-07T15:34:06Z</time>
      </trkpt>
      <trkpt lat="59.974906" lon="17.7374485">
        <ele>26.5736</ele>
        <time>2012-05-07T15:34:11Z</time>
      </trkpt>
      <trkpt lat="59.9749934" lon="17.7376276">
        <ele>26.0929</ele>
        <time>2012-05-07T15:34:16Z</time>
      </trkpt>
      <trkpt lat="59.9751018" lon="17.7378226">
        <ele>25.1317</ele>
        <time>2012-05-07T15:34:22Z</time>
      </trkpt>
      <trkpt lat="59.975119" lon="17.7378583">
        <ele>25.1317</ele>
        <time>2012-05-07T15:34:23Z</time>
      </trkpt>
    </trkseg>
  </trk>
</gpx>